sensor_id;sensor_type;location;lat;lon;timestamp;temperature;humidity
63976;DHT22;50167;47.958;21.780;2023-11-19T00:00:46;5.79;61.61
63976;DHT22;50167;47.958;21.780;2023-11-19T00:03:13;6.56;61.37
63976;DHT22;50167;47.958;21.780;2023-11-19T00:05:43;7.01;58.96
63976;DHT22;50167;47.958;21.780;2023-11-19T00:08:10;6.55;57.35
63976;DHT22;50167;47.958;21.780;2023-11-19T00:10:37;5.58;58.53
63976;DHT22;50167;47.958;21.780;2023-11-19T00:13:03;4.90;62.23
63976;DHT22;50167;47.958;21.780;2023-11-19T00:15:30;5.28;62.67
63976;DHT22;50167;47.958;21.780;2023-11-19T00:17:57;6.01;61.68
63976;DHT22;50167;47.958;21.780;2023-11-19T00:20:23;6.72;60.54
63976;DHT22;50167;47.958;21.780;2023-11-19T00:22:50;6.57;57.78
63976;DHT22;50167;47.958;21.780;2023-11-19T00:25:20;5.43;60.53
63976;DHT22;50167;47.958;21.780;2023-11-19T00:27:54;5.04;62.85
63976;DHT22;50167;47.958;21.780;2023-11-19T00:30:22;5.90;62.97
63976;DHT22;50167;47.958;21.780;2023-11-19T00:32:48;6.49;60.35
63976;DHT22;50167;47.958;21.780;2023-11-19T00:35:15;6.24;58.58
63976;DHT22;50167;47.958;21.780;2023-11-19T00:37:42;5.36;60.20
63976;DHT22;50167;47.958;21.780;2023-11-19T00:40:09;5.21;62.96
63976;DHT22;50167;47.958;21.780;2023-11-19T00:42:36;5.79;61.28
63976;DHT22;50167;47.958;21.780;2023-11-19T00:45:04;6.11;60.37
63976;DHT22;50167;47.958;21.780;2023-11-19T00:47:32;6.12;60.24
63976;DHT22;50167;47.958;21.780;2023-11-19T00:49:58;6.49;59.42
63976;DHT22;50167;47.958;21.780;2023-11-19T00:52:25;6.12;59.33
63976;DHT22;50167;47.958;21.780;2023-11-19T00:54:51;5.26;61.63
63976;DHT22;50167;47.958;21.780;2023-11-19T00:57:18;4.91;63.61
63976;DHT22;50167;47.958;21.780;2023-11-19T00:59:44;5.24;63.36
63976;DHT22;50167;47.958;21.780;2023-11-19T01:02:11;5.31;62.89
63976;DHT22;50167;47.958;21.780;2023-11-19T01:04:38;5.25;62.97
63976;DHT22;50167;47.958;21.780;2023-11-19T01:07:05;5.65;63.06
63976;DHT22;50167;47.958;21.780;2023-11-19T01:09:33;6.14;60.96
63976;DHT22;50167;47.958;21.780;2023-11-19T01:12:03;6.63;61.04
63976;DHT22;50167;47.958;21.780;2023-11-19T01:14:29;6.48;59.10
63976;DHT22;50167;47.958;21.780;2023-11-19T01:16:58;5.60;61.18
63976;DHT22;50167;47.958;21.780;2023-11-19T01:19:24;4.94;63.90
63976;DHT22;50167;47.958;21.780;2023-11-19T01:21:51;5.29;63.24
63976;DHT22;50167;47.958;21.780;2023-11-19T01:24:17;5.58;62.23
63976;DHT22;50167;47.958;21.780;2023-11-19T01:26:46;5.91;61.80
63976;DHT22;50167;47.958;21.780;2023-11-19T01:29:15;6.11;61.00
63976;DHT22;50167;47.958;21.780;2023-11-19T01:31:45;6.28;60.49
63976;DHT22;50167;47.958;21.780;2023-11-19T01:34:13;6.26;59.55
63976;DHT22;50167;47.958;21.780;2023-11-19T01:36:40;5.93;59.77
63976;DHT22;50167;47.958;21.780;2023-11-19T01:39:06;5.16;61.66
63976;DHT22;50167;47.958;21.780;2023-11-19T01:41:36;5.05;63.18
63976;DHT22;50167;47.958;21.780;2023-11-19T01:48:03;6.05;60.49
63976;DHT22;50167;47.958;21.780;2023-11-19T01:50:30;6.36;60.49
63976;DHT22;50167;47.958;21.780;2023-11-19T01:52:58;5.87;59.22
63976;DHT22;50167;47.958;21.780;2023-11-19T01:55:25;4.97;61.80
63976;DHT22;50167;47.958;21.780;2023-11-19T01:57:55;5.32;62.95
63976;DHT22;50167;47.958;21.780;2023-11-19T02:04:24;5.86;59.02
63976;DHT22;50167;47.958;21.780;2023-11-19T02:06:54;5.03;58.53
63976;DHT22;50167;47.958;21.780;2023-11-19T02:09:23;4.81;62.11
63976;DHT22;50167;47.958;21.780;2023-11-19T02:11:51;5.26;62.40
63976;DHT22;50167;47.958;21.780;2023-11-19T02:14:18;5.50;62.26
63976;DHT22;50167;47.958;21.780;2023-11-19T02:20:34;6.11;62.04
63976;DHT22;50167;47.958;21.780;2023-11-19T02:23:00;6.80;61.90
63976;DHT22;50167;47.958;21.780;2023-11-19T02:25:30;7.28;60.05
63976;DHT22;50167;47.958;21.780;2023-11-19T02:28:02;6.76;56.90
63976;DHT22;50167;47.958;21.780;2023-11-19T02:30:29;5.66;56.97
63976;DHT22;50167;47.958;21.780;2023-11-19T02:32:56;5.03;59.76
63976;DHT22;50167;47.958;21.780;2023-11-19T02:35:28;5.65;61.28
63976;DHT22;50167;47.958;21.780;2023-11-19T02:37:56;6.57;60.23
63976;DHT22;50167;47.958;21.780;2023-11-19T02:40:24;7.12;57.42
63976;DHT22;50167;47.958;21.780;2023-11-19T02:42:53;6.46;55.93
63976;DHT22;50167;47.958;21.780;2023-11-19T02:45:23;5.29;59.56
63976;DHT22;50167;47.958;21.780;2023-11-19T02:47:52;5.26;61.98
63976;DHT22;50167;47.958;21.780;2023-11-19T02:50:21;5.31;59.62
63976;DHT22;50167;47.958;21.780;2023-11-19T02:52:55;5.11;61.76
63976;DHT22;50167;47.958;21.780;2023-11-19T02:55:22;5.58;62.52
63976;DHT22;50167;47.958;21.780;2023-11-19T02:57:51;6.35;63.05
63976;DHT22;50167;47.958;21.780;2023-11-19T03:00:21;6.84;61.73
63976;DHT22;50167;47.958;21.780;2023-11-19T03:02:52;7.29;60.60
63976;DHT22;50167;47.958;21.780;2023-11-19T03:05:27;7.70;58.33
63976;DHT22;50167;47.958;21.780;2023-11-19T03:07:55;7.14;54.60
63976;DHT22;50167;47.958;21.780;2023-11-19T03:10:22;6.02;55.14
63976;DHT22;50167;47.958;21.780;2023-11-19T03:12:50;5.18;56.07
63976;DHT22;50167;47.958;21.780;2023-11-19T03:15:16;5.62;62.65
63976;DHT22;50167;47.958;21.780;2023-11-19T03:17:43;6.84;61.31
63976;DHT22;50167;47.958;21.780;2023-11-19T03:20:11;7.73;58.83
63976;DHT22;50167;47.958;21.780;2023-11-19T03:22:40;7.43;54.24
63976;DHT22;50167;47.958;21.780;2023-11-19T03:25:08;6.21;54.64
63976;DHT22;50167;47.958;21.780;2023-11-19T03:27:38;5.28;56.26
63976;DHT22;50167;47.958;21.780;2023-11-19T03:30:08;5.50;63.02
63976;DHT22;50167;47.958;21.780;2023-11-19T03:32:35;6.69;61.09
63976;DHT22;50167;47.958;21.780;2023-11-19T03:35:02;7.46;58.34
63976;DHT22;50167;47.958;21.780;2023-11-19T03:37:30;7.03;54.38
63976;DHT22;50167;47.958;21.780;2023-11-19T03:39:58;5.86;54.87
63976;DHT22;50167;47.958;21.780;2023-11-19T03:42:26;5.05;57.50
63976;DHT22;50167;47.958;21.780;2023-11-19T03:44:53;5.58;60.02
63976;DHT22;50167;47.958;21.780;2023-11-19T03:47:20;5.04;58.23
63976;DHT22;50167;47.958;21.780;2023-11-19T03:49:52;5.70;63.35
63976;DHT22;50167;47.958;21.780;2023-11-19T03:52:21;6.66;61.02
63976;DHT22;50167;47.958;21.780;2023-11-19T03:54:47;7.18;59.04
63976;DHT22;50167;47.958;21.780;2023-11-19T03:57:14;6.73;55.13
63976;DHT22;50167;47.958;21.780;2023-11-19T03:59:44;5.59;55.28
63976;DHT22;50167;47.958;21.780;2023-11-19T04:02:11;5.08;59.73
63976;DHT22;50167;47.958;21.780;2023-11-19T04:04:37;5.45;58.76
63976;DHT22;50167;47.958;21.780;2023-11-19T04:07:05;5.00;59.58
63976;DHT22;50167;47.958;21.780;2023-11-19T04:09:32;5.63;61.87
63976;DHT22;50167;47.958;21.780;2023-11-19T04:12:04;6.15;60.68
63976;DHT22;50167;47.958;21.780;2023-11-19T04:14:30;6.56;59.39
63976;DHT22;50167;47.958;21.780;2023-11-19T04:16:57;6.36;55.74
63976;DHT22;50167;47.958;21.780;2023-11-19T04:19:23;5.31;55.46
63976;DHT22;50167;47.958;21.780;2023-11-19T04:21:50;4.93;59.58
63976;DHT22;50167;47.958;21.780;2023-11-19T04:24:18;5.28;61.10
63976;DHT22;50167;47.958;21.780;2023-11-19T04:26:45;5.19;58.34
63976;DHT22;50167;47.958;21.780;2023-11-19T04:29:15;5.05;61.08
63976;DHT22;50167;47.958;21.780;2023-11-19T04:31:44;5.33;60.84
63976;DHT22;50167;47.958;21.780;2023-11-19T04:34:10;5.00;60.35
63976;DHT22;50167;47.958;21.780;2023-11-19T04:36:40;5.45;62.08
63976;DHT22;50167;47.958;21.780;2023-11-19T04:39:07;5.62;60.35
63976;DHT22;50167;47.958;21.780;2023-11-19T04:41:36;5.56;60.07
63976;DHT22;50167;47.958;21.780;2023-11-19T04:44:02;5.74;61.01
63976;DHT22;50167;47.958;21.780;2023-11-19T04:46:30;6.42;60.72
63976;DHT22;50167;47.958;21.780;2023-11-19T04:48:57;6.79;58.52
63976;DHT22;50167;47.958;21.780;2023-11-19T04:51:23;6.18;55.57
63976;DHT22;50167;47.958;21.780;2023-11-19T04:53:50;5.12;56.13
63976;DHT22;50167;47.958;21.780;2023-11-19T04:56:16;4.76;59.37
63976;DHT22;50167;47.958;21.780;2023-11-19T05:02:45;5.60;62.57
63976;DHT22;50167;47.958;21.780;2023-11-19T05:05:11;6.28;61.05
63976;DHT22;50167;47.958;21.780;2023-11-19T05:07:38;6.69;59.08
63976;DHT22;50167;47.958;21.780;2023-11-19T05:10:07;6.22;56.15
63976;DHT22;50167;47.958;21.780;2023-11-19T05:16:46;5.87;62.61
63976;DHT22;50167;47.958;21.780;2023-11-19T05:23:13;5.69;55.54
63976;DHT22;50167;47.958;21.780;2023-11-19T05:25:39;4.91;57.98
63976;DHT22;50167;47.958;21.780;2023-11-19T05:28:06;5.04;59.93
63976;DHT22;50167;47.958;21.780;2023-11-19T05:30:32;5.73;61.99
63976;DHT22;50167;47.958;21.780;2023-11-19T05:32:58;6.60;60.59
63976;DHT22;50167;47.958;21.780;2023-11-19T05:35:26;7.15;57.90
63976;DHT22;50167;47.958;21.780;2023-11-19T05:37:53;6.45;54.59
63976;DHT22;50167;47.958;21.780;2023-11-19T05:40:19;5.41;55.35
63976;DHT22;50167;47.958;21.780;2023-11-19T05:42:46;5.18;60.28
63976;DHT22;50167;47.958;21.780;2023-11-19T05:45:13;5.43;58.59
63976;DHT22;50167;47.958;21.780;2023-11-19T05:47:39;5.07;60.02
63976;DHT22;50167;47.958;21.780;2023-11-19T05:50:06;5.38;59.44
63976;DHT22;50167;47.958;21.780;2023-11-19T05:52:32;5.05;60.59
63976;DHT22;50167;47.958;21.780;2023-11-19T05:55:01;5.38;60.11
63976;DHT22;50167;47.958;21.780;2023-11-19T05:57:29;5.03;60.88
63976;DHT22;50167;47.958;21.780;2023-11-19T05:59:55;5.90;63.18
63976;DHT22;50167;47.958;21.780;2023-11-19T06:02:22;6.63;60.74
63976;DHT22;50167;47.958;21.780;2023-11-19T06:04:48;7.03;59.17
63976;DHT22;50167;47.958;21.780;2023-11-19T06:07:15;6.65;55.97
63976;DHT22;50167;47.958;21.780;2023-11-19T06:09:41;5.65;56.25
63976;DHT22;50167;47.958;21.780;2023-11-19T06:12:08;5.04;58.91
63976;DHT22;50167;47.958;21.780;2023-11-19T06:14:35;5.93;62.43
63976;DHT22;50167;47.958;21.780;2023-11-19T06:17:01;6.79;60.26
63976;DHT22;50167;47.958;21.780;2023-11-19T06:19:27;7.24;58.78
63976;DHT22;50167;47.958;21.780;2023-11-19T06:21:54;6.79;55.47
63976;DHT22;50167;47.958;21.780;2023-11-19T06:24:20;5.74;56.03
63976;DHT22;50167;47.958;21.780;2023-11-19T06:26:46;5.03;58.75
63976;DHT22;50167;47.958;21.780;2023-11-19T06:29:14;5.60;62.95
63976;DHT22;50167;47.958;21.780;2023-11-19T06:31:42;6.59;62.31
63976;DHT22;50167;47.958;21.780;2023-11-19T06:34:08;7.43;59.82
63976;DHT22;50167;47.958;21.780;2023-11-19T06:36:34;7.34;55.56
63976;DHT22;50167;47.958;21.780;2023-11-19T06:39:01;6.29;55.18
63976;DHT22;50167;47.958;21.780;2023-11-19T06:41:28;5.45;56.94
63976;DHT22;50167;47.958;21.780;2023-11-19T06:43:55;5.28;61.80
63976;DHT22;50167;47.958;21.780;2023-11-19T06:46:21;5.52;59.71
63976;DHT22;50167;47.958;21.780;2023-11-19T06:48:48;5.15;60.65
63976;DHT22;50167;47.958;21.780;2023-11-19T06:51:15;6.14;64.32
63976;DHT22;50167;47.958;21.780;2023-11-19T06:53:43;7.01;61.78
63976;DHT22;50167;47.958;21.780;2023-11-19T06:56:20;7.67;59.59
63976;DHT22;50167;47.958;21.780;2023-11-19T07:02:48;6.01;56.23
63976;DHT22;50167;47.958;21.780;2023-11-19T07:05:15;5.42;58.15
63976;DHT22;50167;47.958;21.780;2023-11-19T07:07:42;5.29;61.77
63976;DHT22;50167;47.958;21.780;2023-11-19T07:10:09;5.60;60.41
63976;DHT22;50167;47.958;21.780;2023-11-19T07:12:35;5.15;59.95
63976;DHT22;50167;47.958;21.780;2023-11-19T07:15:03;5.47;63.66
63976;DHT22;50167;47.958;21.780;2023-11-19T07:17:31;6.49;63.89
63976;DHT22;50167;47.958;21.780;2023-11-19T07:19:57;7.60;61.17
63976;DHT22;50167;47.958;21.780;2023-11-19T07:23:13;8.10;58.04
63976;DHT22;50167;47.958;21.780;2023-11-19T07:25:43;7.39;54.73
63976;DHT22;50167;47.958;21.780;2023-11-19T07:28:11;6.57;55.69
63976;DHT22;50167;47.958;21.780;2023-11-19T07:30:38;6.05;57.02
63976;DHT22;50167;47.958;21.780;2023-11-19T07:33:05;5.65;58.33
63976;DHT22;50167;47.958;21.780;2023-11-19T07:35:38;5.31;59.70
63976;DHT22;50167;47.958;21.780;2023-11-19T07:38:04;5.52;62.99
63976;DHT22;50167;47.958;21.780;2023-11-19T07:40:31;6.79;64.98
63976;DHT22;50167;47.958;21.780;2023-11-19T07:42:57;7.86;61.09
63976;DHT22;50167;47.958;21.780;2023-11-19T07:45:23;8.60;58.59
63976;DHT22;50167;47.958;21.780;2023-11-19T07:47:49;8.41;54.72
63976;DHT22;50167;47.958;21.780;2023-11-19T07:50:17;7.50;56.17
63976;DHT22;50167;47.958;21.780;2023-11-19T07:52:45;6.77;56.42
63976;DHT22;50167;47.958;21.780;2023-11-19T07:55:11;6.24;57.99
63976;DHT22;50167;47.958;21.780;2023-11-19T07:57:38;5.84;59.23
63976;DHT22;50167;47.958;21.780;2023-11-19T08:00:08;5.52;60.21
63976;DHT22;50167;47.958;21.780;2023-11-19T08:02:35;5.24;60.57
63976;DHT22;50167;47.958;21.780;2023-11-19T08:05:02;5.96;64.78
63976;DHT22;50167;47.958;21.780;2023-11-19T08:07:28;7.43;63.59
63976;DHT22;50167;47.958;21.780;2023-11-19T08:09:55;8.35;59.73
63976;DHT22;50167;47.958;21.780;2023-11-19T08:12:21;8.35;54.90
63976;DHT22;50167;47.958;21.780;2023-11-19T08:14:47;7.45;55.06
63976;DHT22;50167;47.958;21.780;2023-11-19T08:17:15;6.67;56.73
63976;DHT22;50167;47.958;21.780;2023-11-19T08:19:42;6.11;57.94
63976;DHT22;50167;47.958;21.780;2023-11-19T08:22:08;5.70;58.90
63976;DHT22;50167;47.958;21.780;2023-11-19T08:24:35;5.36;61.11
63976;DHT22;50167;47.958;21.780;2023-11-19T08:27:02;5.39;62.50
63976;DHT22;50167;47.958;21.780;2023-11-19T08:29:28;6.52;65.56
63976;DHT22;50167;47.958;21.780;2023-11-19T08:31:54;7.70;62.40
63976;DHT22;50167;47.958;21.780;2023-11-19T08:34:21;9.03;59.96
63976;DHT22;50167;47.958;21.780;2023-11-19T08:36:52;9.11;53.67
63976;DHT22;50167;47.958;21.780;2023-11-19T08:39:19;8.11;53.35
63976;DHT22;50167;47.958;21.780;2023-11-19T08:41:48;7.41;54.50
63976;DHT22;50167;47.958;21.780;2023-11-19T08:44:15;6.93;56.02
63976;DHT22;50167;47.958;21.780;2023-11-19T08:46:50;6.56;56.82
63976;DHT22;50167;47.958;21.780;2023-11-19T08:49:17;6.28;58.18
63976;DHT22;50167;47.958;21.780;2023-11-19T08:51:43;6.02;59.21
63976;DHT22;50167;47.958;21.780;2023-11-19T08:54:11;5.74;60.09
63976;DHT22;50167;47.958;21.780;2023-11-19T08:56:39;5.46;61.22
63976;DHT22;50167;47.958;21.780;2023-11-19T08:59:05;5.26;61.48
63976;DHT22;50167;47.958;21.780;2023-11-19T09:01:31;6.12;67.04
63976;DHT22;50167;47.958;21.780;2023-11-19T09:03:58;7.94;65.04
63976;DHT22;50167;47.958;21.780;2023-11-19T09:06:24;9.31;60.34
63976;DHT22;50167;47.958;21.780;2023-11-19T09:08:50;9.59;53.11
63976;DHT22;50167;47.958;21.780;2023-11-19T09:11:17;8.55;53.37
63976;DHT22;50167;47.958;21.780;2023-11-19T09:13:43;7.76;55.43
63976;DHT22;50167;47.958;21.780;2023-11-19T09:16:12;7.26;57.39
63976;DHT22;50167;47.958;21.780;2023-11-19T09:18:39;6.93;57.84
63976;DHT22;50167;47.958;21.780;2023-11-19T09:21:06;6.77;60.18
63976;DHT22;50167;47.958;21.780;2023-11-19T09:23:32;6.91;61.88
63976;DHT22;50167;47.958;21.780;2023-11-19T09:26:00;8.66;61.36
63976;DHT22;50167;47.958;21.780;2023-11-19T09:28:27;10.61;56.94
63976;DHT22;50167;47.958;21.780;2023-11-19T09:30:53;11.42;50.68
63976;DHT22;50167;47.958;21.780;2023-11-19T09:33:19;11.41;51.63
63976;DHT22;50167;47.958;21.780;2023-11-19T09:35:45;11.25;48.71
63976;DHT22;50167;47.958;21.780;2023-11-19T09:38:11;11.02;50.60
63976;DHT22;50167;47.958;21.780;2023-11-19T09:40:38;11.00;48.36
63976;DHT22;50167;47.958;21.780;2023-11-19T09:43:05;10.79;47.28
63976;DHT22;50167;47.958;21.780;2023-11-19T09:45:32;10.49;48.43
63976;DHT22;50167;47.958;21.780;2023-11-19T09:48:01;10.14;49.91
63976;DHT22;50167;47.958;21.780;2023-11-19T09:50:28;9.93;50.68
63976;DHT22;50167;47.958;21.780;2023-11-19T09:52:55;10.63;51.87
63976;DHT22;50167;47.958;21.780;2023-11-19T09:55:21;11.49;47.56
63976;DHT22;50167;47.958;21.780;2023-11-19T09:57:49;11.99;46.63
63976;DHT22;50167;47.958;21.780;2023-11-19T10:00:17;12.27;46.33
63976;DHT22;50167;47.958;21.780;2023-11-19T10:02:45;12.44;45.17
63976;DHT22;50167;47.958;21.780;2023-11-19T10:05:12;12.48;45.56
63976;DHT22;50167;47.958;21.780;2023-11-19T10:07:40;12.52;47.13
63976;DHT22;50167;47.958;21.780;2023-11-19T10:10:09;12.74;42.93
63976;DHT22;50167;47.958;21.780;2023-11-19T10:12:37;12.80;47.61
63976;DHT22;50167;47.958;21.780;2023-11-19T10:15:05;12.71;43.61
63976;DHT22;50167;47.958;21.780;2023-11-19T10:17:34;12.59;44.94
63976;DHT22;50167;47.958;21.780;2023-11-19T10:20:01;12.54;43.70
63976;DHT22;50167;47.958;21.780;2023-11-19T10:22:28;12.28;45.17
63976;DHT22;50167;47.958;21.780;2023-11-19T10:24:54;11.96;45.41
63976;DHT22;50167;47.958;21.780;2023-11-19T10:27:25;11.58;49.12
63976;DHT22;50167;47.958;21.780;2023-11-19T10:29:51;11.13;48.17
63976;DHT22;50167;47.958;21.780;2023-11-19T10:32:17;10.71;48.42
63976;DHT22;50167;47.958;21.780;2023-11-19T10:34:43;10.42;48.96
63976;DHT22;50167;47.958;21.780;2023-11-19T10:37:29;10.15;49.31
63976;DHT22;50167;47.958;21.780;2023-11-19T10:40:03;9.70;50.30
63976;DHT22;50167;47.958;21.780;2023-11-19T10:42:31;9.31;51.57
63976;DHT22;50167;47.958;21.780;2023-11-19T10:44:57;8.90;53.88
63976;DHT22;50167;47.958;21.780;2023-11-19T10:47:23;8.51;53.98
63976;DHT22;50167;47.958;21.780;2023-11-19T10:49:49;8.11;54.28
63976;DHT22;50167;47.958;21.780;2023-11-19T10:52:18;7.79;56.23
63976;DHT22;50167;47.958;21.780;2023-11-19T10:54:50;7.50;56.82
63976;DHT22;50167;47.958;21.780;2023-11-19T10:57:22;7.19;57.10
63976;DHT22;50167;47.958;21.780;2023-11-19T10:59:52;6.94;57.21
63976;DHT22;50167;47.958;21.780;2023-11-19T11:02:22;6.79;57.77
63976;DHT22;50167;47.958;21.780;2023-11-19T11:04:50;6.59;58.43
63976;DHT22;50167;47.958;21.780;2023-11-19T11:07:21;6.38;59.49
63976;DHT22;50167;47.958;21.780;2023-11-19T11:09:49;6.17;59.93
63976;DHT22;50167;47.958;21.780;2023-11-19T11:12:18;6.01;60.52
63976;DHT22;50167;47.958;21.780;2023-11-19T11:14:46;5.86;61.18
63976;DHT22;50167;47.958;21.780;2023-11-19T11:17:17;5.77;61.13
63976;DHT22;50167;47.958;21.780;2023-11-19T11:19:44;5.69;61.12
63976;DHT22;50167;47.958;21.780;2023-11-19T11:22:11;5.63;62.40
63976;DHT22;50167;47.958;21.780;2023-11-19T11:30:53;8.76;64.20
63976;DHT22;50167;47.958;21.780;2023-11-19T11:33:56;9.58;54.60
63976;DHT22;50167;47.958;21.780;2023-11-19T11:36:20;8.51;54.12
63976;DHT22;50167;47.958;21.780;2023-11-19T11:38:49;7.89;54.73
63976;DHT22;50167;47.958;21.780;2023-11-19T11:41:24;7.39;55.78
63976;DHT22;50167;47.958;21.780;2023-11-19T11:43:52;7.04;56.43
63976;DHT22;50167;47.958;21.780;2023-11-19T11:49:07;6.53;59.08
63976;DHT22;50167;47.958;21.780;2023-11-19T11:51:57;6.36;59.08
63976;DHT22;50167;47.958;21.780;2023-11-19T11:57:11;6.12;60.73
63976;DHT22;50167;47.958;21.780;2023-11-19T11:59:49;6.02;61.04
63976;DHT22;50167;47.958;21.780;2023-11-19T12:02:20;6.01;61.74
63976;DHT22;50167;47.958;21.780;2023-11-19T12:04:52;5.93;62.09
63976;DHT22;50167;47.958;21.780;2023-11-19T12:07:23;5.90;62.20
63976;DHT22;50167;47.958;21.780;2023-11-19T12:10:09;6.90;62.65
63976;DHT22;50167;47.958;21.780;2023-11-19T12:12:37;8.94;60.64
63976;DHT22;50167;47.958;21.780;2023-11-19T12:15:09;9.32;54.45
63976;DHT22;50167;47.958;21.780;2023-11-19T12:20:07;7.92;55.41
63976;DHT22;50167;47.958;21.780;2023-11-19T12:22:41;7.43;54.43
63976;DHT22;50167;47.958;21.780;2023-11-19T12:25:09;7.04;59.25
63976;DHT22;50167;47.958;21.780;2023-11-19T12:27:47;6.72;58.86
63976;DHT22;50167;47.958;21.780;2023-11-19T12:30:24;6.40;60.09
63976;DHT22;50167;47.958;21.780;2023-11-19T12:35:28;5.94;62.03
63976;DHT22;50167;47.958;21.780;2023-11-19T12:37:54;6.11;63.74
63976;DHT22;50167;47.958;21.780;2023-11-19T12:40:25;7.77;62.35
63976;DHT22;50167;47.958;21.780;2023-11-19T12:42:53;9.08;59.58
63976;DHT22;50167;47.958;21.780;2023-11-19T12:45:20;9.11;54.02
63976;DHT22;50167;47.958;21.780;2023-11-19T12:47:49;8.13;54.80
63976;DHT22;50167;47.958;21.780;2023-11-19T12:50:18;7.39;56.55
63976;DHT22;50167;47.958;21.780;2023-11-19T12:52:57;6.86;57.75
63976;DHT22;50167;47.958;21.780;2023-11-19T12:55:28;6.36;60.63
63976;DHT22;50167;47.958;21.780;2023-11-19T12:57:56;5.98;61.75
63976;DHT22;50167;47.958;21.780;2023-11-19T13:00:24;5.73;61.88
63976;DHT22;50167;47.958;21.780;2023-11-19T13:02:54;6.40;65.44
63976;DHT22;50167;47.958;21.780;2023-11-19T13:05:33;8.20;63.35
63976;DHT22;50167;47.958;21.780;2023-11-19T13:08:02;9.48;59.17
63976;DHT22;50167;47.958;21.780;2023-11-19T13:10:31;9.45;52.94
63976;DHT22;50167;47.958;21.780;2023-11-19T13:13:15;8.25;55.08
63976;DHT22;50167;47.958;21.780;2023-11-19T13:15:42;7.36;57.10
63976;DHT22;50167;47.958;21.780;2023-11-19T13:18:10;6.73;58.88
63976;DHT22;50167;47.958;21.780;2023-11-19T13:20:36;6.26;60.66
63976;DHT22;50167;47.958;21.780;2023-11-19T13:23:26;5.86;62.18
63976;DHT22;50167;47.958;21.780;2023-11-19T13:29:16;8.66;61.55
63976;DHT22;50167;47.958;21.780;2023-11-19T13:31:42;8.99;55.49
63976;DHT22;50167;47.958;21.780;2023-11-19T13:34:08;8.10;55.86
63976;DHT22;50167;47.958;21.780;2023-11-19T13:36:35;7.26;57.74
63976;DHT22;50167;47.958;21.780;2023-11-19T13:39:01;6.56;59.90
63976;DHT22;50167;47.958;21.780;2023-11-19T13:41:27;6.08;60.45
63976;DHT22;50167;47.958;21.780;2023-11-19T13:43:54;5.77;61.98
63976;DHT22;50167;47.958;21.780;2023-11-19T13:46:21;6.40;65.11
63976;DHT22;50167;47.958;21.780;2023-11-19T13:48:47;7.97;63.81
63976;DHT22;50167;47.958;21.780;2023-11-19T13:51:15;9.06;58.95
63976;DHT22;50167;47.958;21.780;2023-11-19T13:53:43;8.89;55.68
63976;DHT22;50167;47.958;21.780;2023-11-19T13:56:10;7.87;56.66
63976;DHT22;50167;47.958;21.780;2023-11-19T13:58:36;6.93;60.31
63976;DHT22;50167;47.958;21.780;2023-11-19T14:01:03;6.36;60.99
63976;DHT22;50167;47.958;21.780;2023-11-19T14:03:29;5.91;61.50
63976;DHT22;50167;47.958;21.780;2023-11-19T14:05:55;5.97;65.76
63976;DHT22;50167;47.958;21.780;2023-11-19T14:08:23;7.69;64.41
63976;DHT22;50167;47.958;21.780;2023-11-19T14:10:49;8.93;60.38
63976;DHT22;50167;47.958;21.780;2023-11-19T14:13:16;8.90;55.79
63976;DHT22;50167;47.958;21.780;2023-11-19T14:15:42;7.97;56.33
63976;DHT22;50167;47.958;21.780;2023-11-19T14:18:08;7.18;58.16
63976;DHT22;50167;47.958;21.780;2023-11-19T14:20:34;6.57;59.98
63976;DHT22;50167;47.958;21.780;2023-11-19T14:23:14;6.08;61.86
63976;DHT22;50167;47.958;21.780;2023-11-19T14:25:40;6.77;66.31
63976;DHT22;50167;47.958;21.780;2023-11-19T14:28:06;8.15;63.55
63976;DHT22;50167;47.958;21.780;2023-11-19T14:30:33;8.97;61.35
63976;DHT22;50167;47.958;21.780;2023-11-19T14:33:00;9.41;58.18
63976;DHT22;50167;47.958;21.780;2023-11-19T14:35:26;8.86;56.72
63976;DHT22;50167;47.958;21.780;2023-11-19T14:37:52;7.84;58.69
63976;DHT22;50167;47.958;21.780;2023-11-19T14:40:18;6.98;60.12
63976;DHT22;50167;47.958;21.780;2023-11-19T14:42:45;6.38;62.38
63976;DHT22;50167;47.958;21.780;2023-11-19T14:45:11;6.66;66.03
63976;DHT22;50167;47.958;21.780;2023-11-19T14:47:38;7.62;65.47
63976;DHT22;50167;47.958;21.780;2023-11-19T14:50:05;8.41;64.09
63976;DHT22;50167;47.958;21.780;2023-11-19T14:52:32;9.24;61.61
63976;DHT22;50167;47.958;21.780;2023-11-19T14:54:58;9.92;60.40
63976;DHT22;50167;47.958;21.780;2023-11-19T14:57:24;10.36;58.17
63976;DHT22;50167;47.958;21.780;2023-11-19T14:59:51;9.96;55.23
63976;DHT22;50167;47.958;21.780;2023-11-19T15:02:17;8.72;56.59
63976;DHT22;50167;47.958;21.780;2023-11-19T15:04:44;7.71;60.51
63976;DHT22;50167;47.958;21.780;2023-11-19T15:07:11;6.93;63.59
63976;DHT22;50167;47.958;21.780;2023-11-19T15:09:37;7.14;65.51
63976;DHT22;50167;47.958;21.780;2023-11-19T15:12:05;8.27;65.57
63976;DHT22;50167;47.958;21.780;2023-11-19T15:14:31;9.25;63.03
63976;DHT22;50167;47.958;21.780;2023-11-19T15:16:57;9.60;60.02
63976;DHT22;50167;47.958;21.780;2023-11-19T15:19:24;9.67;59.22
63976;DHT22;50167;47.958;21.780;2023-11-19T15:21:50;9.24;57.59
63976;DHT22;50167;47.958;21.780;2023-11-19T15:24:16;8.14;59.77
63976;DHT22;50167;47.958;21.780;2023-11-19T15:26:43;7.18;61.00
63976;DHT22;50167;47.958;21.780;2023-11-19T15:29:09;6.46;63.01
63976;DHT22;50167;47.958;21.780;2023-11-19T15:31:35;6.91;67.55
63976;DHT22;50167;47.958;21.780;2023-11-19T15:34:01;7.87;64.18
63976;DHT22;50167;47.958;21.780;2023-11-19T15:36:28;8.45;63.62
63976;DHT22;50167;47.958;21.780;2023-11-19T15:38:55;8.97;62.45
63976;DHT22;50167;47.958;21.780;2023-11-19T15:41:21;9.15;61.57
63976;DHT22;50167;47.958;21.780;2023-11-19T15:43:47;9.07;59.82
63976;DHT22;50167;47.958;21.780;2023-11-19T15:46:13;8.07;60.04
63976;DHT22;50167;47.958;21.780;2023-11-19T15:48:41;7.12;62.46
63976;DHT22;50167;47.958;21.780;2023-11-19T15:51:08;7.41;65.08
63976;DHT22;50167;47.958;21.780;2023-11-19T15:53:34;8.60;64.45
63976;DHT22;50167;47.958;21.780;2023-11-19T15:56:00;9.08;61.34
63976;DHT22;50167;47.958;21.780;2023-11-19T15:58:27;9.41;60.63
63976;DHT22;50167;47.958;21.780;2023-11-19T16:00:53;9.50;60.99
63976;DHT22;50167;47.958;21.780;2023-11-19T16:03:19;9.63;60.92
63976;DHT22;50167;47.958;21.780;2023-11-19T16:05:45;9.76;59.86
63976;DHT22;50167;47.958;21.780;2023-11-19T16:08:12;9.94;60.48
63976;DHT22;50167;47.958;21.780;2023-11-19T16:10:38;9.49;58.01
63976;DHT22;50167;47.958;21.780;2023-11-19T16:13:12;8.27;58.98
63976;DHT22;50167;47.958;21.780;2023-11-19T16:15:39;7.32;63.61
63976;DHT22;50167;47.958;21.780;2023-11-19T16:18:05;7.52;66.86
63976;DHT22;50167;47.958;21.780;2023-11-19T16:20:31;8.36;63.13
63976;DHT22;50167;47.958;21.780;2023-11-19T16:23:00;8.74;62.89